createdAt,value
2024-03-06T00:00:06.236Z,101781.88
2024-03-06T00:02:32.994Z,101789.75
2024-03-06T00:05:00.098Z,101788.84
2024-03-06T00:07:27.382Z,101793.19
2024-03-06T00:09:54.363Z,101799.25
2024-03-06T00:12:21.095Z,101798.41
2024-03-06T00:14:49.026Z,101805.31
2024-03-06T00:17:24.439Z,101792.88
2024-03-06T00:19:51.088Z,101811.34
2024-03-06T00:22:25.166Z,101811.34
2024-03-06T00:24:52.762Z,101816.56
2024-03-06T00:27:19.386Z,101815.63
2024-03-06T00:29:46.352Z,101816.56
2024-03-06T00:32:12.963Z,101812.22
2024-03-06T00:34:40.420Z,101817.47
2024-03-06T00:37:07.251Z,101827.94
2024-03-06T00:39:33.671Z,101821.84
2024-03-06T00:42:01.270Z,101817.47
2024-03-06T00:44:27.922Z,101817.47
2024-03-06T00:46:54.519Z,101814.88
2024-03-06T00:49:21.269Z,101820.09
2024-03-06T00:51:49.546Z,101819.22
2024-03-06T00:54:17.308Z,101817.47
2024-03-06T00:56:44.073Z,101821.81
2024-03-06T00:59:10.965Z,101828.81
2024-03-06T01:01:37.817Z,101826.19
2024-03-06T01:04:05.074Z,101837.47
2024-03-06T01:06:38.918Z,101835.66
2024-03-06T01:09:05.984Z,101833.88
2024-03-06T01:11:32.656Z,101832.88
2024-03-06T01:13:59.439Z,101838.09
2024-03-06T01:16:28.762Z,101842.44
2024-03-06T01:18:55.199Z,101839.72
2024-03-06T01:21:22.049Z,101843.19
2024-03-06T01:23:48.608Z,101850.97
2024-03-06T01:26:18.209Z,101847.44
2024-03-06T01:28:44.767Z,101844.78
2024-03-06T01:31:11.640Z,101851.66
2024-03-06T01:33:38.851Z,101853.34
2024-03-06T01:36:06.143Z,101859.41
2024-03-06T01:38:32.698Z,101854.19
2024-03-06T01:41:02.334Z,101856.69
2024-03-06T01:43:29.409Z,101855.75
2024-03-06T01:45:56.556Z,101850.41
2024-03-06T01:48:28.740Z,101859.13
2024-03-06T01:51:00.152Z,101855.63
2024-03-06T01:53:30.432Z,101853.78
2024-03-06T01:56:00.902Z,101857.28
2024-03-06T01:58:29.146Z,101856.44
2024-03-06T02:01:01.276Z,101858.16
2024-03-06T02:03:27.764Z,101860.88
2024-03-06T02:06:01.566Z,101859.97
2024-03-06T02:08:28.036Z,101853.88
2024-03-06T02:10:54.517Z,101863.47
2024-03-06T02:13:22.144Z,101869.59
2024-03-06T02:15:49.397Z,101867.81
2024-03-06T02:18:18.989Z,101873.94
2024-03-06T02:20:47.113Z,101869.50
2024-03-06T02:23:15.569Z,101866.88
2024-03-06T02:25:42.560Z,101872.13
2024-03-06T02:28:09.224Z,101883.47
2024-03-06T02:30:38.376Z,101879.09
2024-03-06T02:33:07.730Z,101879.91
2024-03-06T02:35:34.503Z,101873.78
2024-03-06T02:38:04.275Z,101877.34
2024-03-06T02:40:32.137Z,101869.31
2024-03-06T02:42:59.366Z,101881.66
2024-03-06T02:45:25.942Z,101872.94
2024-03-06T02:47:52.516Z,101865.94
2024-03-06T02:50:19.107Z,101871.16
2024-03-06T02:52:45.725Z,101866.81
2024-03-06T02:55:21.171Z,101865.94
2024-03-06T02:57:47.692Z,101863.31
2024-03-06T03:00:14.942Z,101872.91
2024-03-06T03:02:41.702Z,101879.03
2024-03-06T03:05:10.897Z,101873.78
2024-03-06T03:07:37.897Z,101882.44
2024-03-06T03:10:05.770Z,101878.16
2024-03-06T03:12:32.722Z,101885.13
2024-03-06T03:14:59.688Z,101885.16
2024-03-06T03:17:26.777Z,101886.84
2024-03-06T03:19:53.787Z,101886.84
2024-03-06T03:22:20.566Z,101883.31
2024-03-06T03:24:47.067Z,101886.78
2024-03-06T03:27:13.859Z,101883.22
2024-03-06T03:29:49.432Z,101895.50
2024-03-06T03:32:20.692Z,101888.44
2024-03-06T03:34:53.462Z,101893.59
2024-03-06T03:37:26.605Z,101891.84
2024-03-06T03:39:53.044Z,101885.56
2024-03-06T03:42:20.347Z,101893.44
2024-03-06T03:44:46.888Z,101893.31
2024-03-06T03:47:13.554Z,101902.75
2024-03-06T03:49:40.201Z,101900.91
2024-03-06T03:52:06.908Z,101899.06
2024-03-06T03:54:33.688Z,101898.97
2024-03-06T03:57:00.302Z,101896.22
2024-03-06T03:59:27.019Z,101900.53
2024-03-06T04:01:53.613Z,101901.34
2024-03-06T04:04:20.129Z,101900.47
2024-03-06T04:06:46.684Z,101890.75
2024-03-06T04:09:14.698Z,101899.47
2024-03-06T04:11:41.440Z,101902.19
2024-03-06T04:14:08.663Z,101903.94
2024-03-06T04:16:35.632Z,101916.91
2024-03-06T04:19:02.386Z,101909.16
2024-03-06T04:21:28.846Z,101902.94
2024-03-06T04:23:55.458Z,101901.31
2024-03-06T04:26:22.067Z,101906.44
2024-03-06T04:28:48.656Z,101902.88
2024-03-06T04:31:15.233Z,101907.13
2024-03-06T04:33:43.602Z,101914.88
2024-03-06T04:36:11.518Z,101914.69
2024-03-06T04:38:41.614Z,101929.44
2024-03-06T04:41:08.320Z,101924.91
2024-03-06T04:43:35.169Z,101927.31
2024-03-06T04:46:01.717Z,101937.59
2024-03-06T04:48:28.187Z,101941.75
2024-03-06T04:50:57.841Z,101948.66
2024-03-06T04:53:27.029Z,101951.13
2024-03-06T04:55:53.646Z,101950.09
2024-03-06T04:58:21.222Z,101953.47
2024-03-06T05:00:47.691Z,101956.88
2024-03-06T05:58:22.262Z,102012.72
2024-03-06T06:00:49.525Z,102016.94
2024-03-06T06:03:16.074Z,102013.38
2024-03-06T06:05:42.755Z,102017.63
2024-03-06T06:08:09.406Z,102023.69
2024-03-06T06:10:36.058Z,102023.69
2024-03-06T06:13:02.745Z,102035.81
2024-03-06T06:15:29.271Z,102025.34
2024-03-06T06:17:55.928Z,102041.88
2024-03-06T06:20:22.531Z,102035.72
2024-03-06T06:22:49.311Z,102040.91
2024-03-06T06:25:17.263Z,102046.97
2024-03-06T06:27:43.792Z,102057.34
2024-03-06T06:30:13.257Z,102063.31
2024-03-06T06:32:42.048Z,102053.75
2024-03-06T06:35:10.696Z,102057.25
2024-03-06T06:37:37.386Z,102065.25
2024-03-06T06:40:07.628Z,102071.28
2024-03-06T06:42:35.567Z,102074.78
2024-03-06T06:45:02.083Z,102078.44
2024-03-06T06:47:28.823Z,102087.22
2024-03-06T06:49:55.528Z,102092.50
2024-03-06T06:52:22.086Z,102089.97
2024-03-06T06:54:49.837Z,102089.25
2024-03-06T06:57:16.604Z,102092.91
2024-03-06T06:59:43.151Z,102093.03
2024-03-06T07:02:09.730Z,102097.44
2024-03-06T07:04:36.150Z,102100.94
2024-03-06T07:07:02.581Z,102104.44
2024-03-06T07:09:30.492Z,102103.66
2024-03-06T07:11:57.200Z,102105.47
2024-03-06T07:14:23.790Z,102119.22
2024-03-06T07:16:50.203Z,102114.13
2024-03-06T07:19:17.974Z,102124.72
2024-03-06T07:21:44.885Z,102108.13
2024-03-06T07:24:11.344Z,102125.94
2024-03-06T07:26:38.459Z,102136.41
2024-03-06T07:29:05.318Z,102140.78
2024-03-06T07:31:33.164Z,102133.91
2024-03-06T07:33:59.667Z,102140.09
2024-03-06T07:36:26.167Z,102137.50
2024-03-06T07:38:52.687Z,102144.41
2024-03-06T07:41:19.121Z,102146.13
2024-03-06T07:43:45.582Z,102157.56
2024-03-06T07:46:13.438Z,102167.38
2024-03-06T07:48:44.944Z,102157.16
2024-03-06T07:51:11.452Z,102157.13
2024-03-06T07:53:38.339Z,102165.09
2024-03-06T07:56:05.264Z,102163.47
2024-03-06T07:58:32.331Z,102167.25
2024-03-06T08:01:00.478Z,102163.25
2024-03-06T08:03:27.108Z,102166.22
2024-03-06T08:05:54.496Z,102168.22
2024-03-06T08:08:21.730Z,102167.63
2024-03-06T08:10:48.306Z,102168.78
2024-03-06T08:13:15.155Z,102174.13
2024-03-06T08:15:41.599Z,102171.03
2024-03-06T08:18:09.910Z,102172.34
2024-03-06T08:20:39.079Z,102174.53
2024-03-06T08:23:05.800Z,102180.13
2024-03-06T08:25:34.021Z,102182.44
2024-03-06T08:28:00.568Z,102180.19
2024-03-06T08:30:27.081Z,102186.59
2024-03-06T08:32:53.774Z,102187.59
2024-03-06T08:35:22.603Z,102189.50
2024-03-06T08:37:49.490Z,102203.44
2024-03-06T08:40:16.658Z,102202.66
2024-03-06T08:42:43.604Z,102207.03
2024-03-06T08:45:13.908Z,102205.28
2024-03-06T08:47:40.439Z,102216.81
2024-03-06T08:50:09.094Z,102210.22
2024-03-06T08:52:38.571Z,102219.50
2024-03-06T08:55:05.566Z,102214.47
2024-03-06T08:57:32.416Z,102216.56
2024-03-06T08:59:59.471Z,102226.34
2024-03-06T09:02:26.595Z,102235.09
2024-03-06T09:04:54.007Z,102228.28
2024-03-06T09:07:32.074Z,102230.31
2024-03-06T09:09:58.534Z,102235.28
2024-03-06T09:12:25.158Z,102236.78
2024-03-06T09:14:51.810Z,102232.44
2024-03-06T09:17:18.346Z,102235.53
2024-03-06T09:19:55.481Z,102245.91
2024-03-06T09:22:30.744Z,102249.00
2024-03-06T09:24:57.538Z,102246.03
2024-03-06T09:27:24.251Z,102248.25
2024-03-06T09:29:50.690Z,102245.16
2024-03-06T09:32:19.935Z,102245.91
2024-03-06T09:34:46.783Z,102252.72
2024-03-06T09:37:13.261Z,102252.63
2024-03-06T09:39:39.763Z,102259.34
2024-03-06T09:42:06.602Z,102263.84
2024-03-06T09:44:33.117Z,102268.78
2024-03-06T09:47:04.368Z,102278.56
2024-03-06T09:49:31.902Z,102274.72
2024-03-06T09:51:59.819Z,102283.00
2024-03-06T09:54:27.936Z,102287.81
2024-03-06T09:56:58.235Z,102287.75
2024-03-06T09:59:24.770Z,102286.81
2024-03-06T10:01:58.492Z,102298.28
2024-03-06T10:04:26.739Z,102290.28
2024-03-06T10:06:58.036Z,102288.25
2024-03-06T10:09:25.538Z,102292.41
2024-03-06T10:11:58.599Z,102297.78
2024-03-06T10:14:26.172Z,102298.03
2024-03-06T10:16:53.251Z,102295.44
2024-03-06T10:19:20.585Z,102299.06
2024-03-06T10:21:52.107Z,102303.56
2024-03-06T10:24:29.684Z,102308.97
2024-03-06T10:26:59.505Z,102312.53
2024-03-06T10:29:30.530Z,102307.22
2024-03-06T10:31:59.395Z,102310.03
2024-03-06T10:34:27.775Z,102303.16
2024-03-06T10:36:59.035Z,102304.34
2024-03-06T10:39:26.096Z,102305.91
2024-03-06T10:41:55.882Z,102299.34
2024-03-06T10:44:27.238Z,102300.59
2024-03-06T10:47:01.260Z,102299.84
2024-03-06T10:49:30.596Z,102300.16
2024-03-06T10:52:01.755Z,102295.47
2024-03-06T10:54:33.371Z,102302.19
2024-03-06T10:57:00.307Z,102304.47
2024-03-06T10:59:28.869Z,102304.78
2024-03-06T11:01:57.033Z,102303.16
2024-03-06T11:04:32.246Z,102297.00
2024-03-06T11:07:00.796Z,102300.50
2024-03-06T11:09:28.387Z,102295.13
2024-03-06T11:11:56.258Z,102304.84
2024-03-06T11:14:24.289Z,102297.84
2024-03-06T11:17:10.096Z,102298.72
2024-03-06T11:20:16.043Z,102304.97
2024-03-06T11:22:57.796Z,102305.75
2024-03-06T11:25:52.325Z,102309.22
2024-03-06T11:28:23.428Z,102301.28
2024-03-06T11:31:03.994Z,102304.06
2024-03-06T11:33:47.614Z,102313.84
2024-03-06T11:36:21.895Z,102313.84
2024-03-06T11:38:53.819Z,102314.59
2024-03-06T11:41:23.421Z,102313.66
2024-03-06T11:43:54.180Z,102310.91
2024-03-06T11:46:23.654Z,102316.97
2024-03-06T11:48:55.105Z,102318.59
2024-03-06T11:51:25.152Z,102322.88
2024-03-06T11:53:52.486Z,102317.50
2024-03-06T11:56:20.967Z,102325.34
2024-03-06T11:58:50.068Z,102326.06
2024-03-06T12:01:18.240Z,102320.59
2024-03-06T12:03:44.907Z,102322.22
2024-03-06T12:06:11.524Z,102321.91
2024-03-06T12:08:39.108Z,102331.47
2024-03-06T12:11:06.577Z,102325.16
2024-03-06T12:13:33.624Z,102335.56
2024-03-06T12:16:03.177Z,102332.78
2024-03-06T12:18:31.310Z,102329.16
2024-03-06T12:20:57.868Z,102341.44
2024-03-06T12:23:26.785Z,102330.78
2024-03-06T12:26:07.645Z,102331.50
2024-03-06T12:28:34.232Z,102332.25
2024-03-06T12:31:04.005Z,102328.53
2024-03-06T12:33:30.909Z,102339.88
2024-03-06T12:36:05.183Z,102343.31
2024-03-06T12:38:31.861Z,102336.19
2024-03-06T12:40:59.591Z,102340.59
2024-03-06T12:43:26.906Z,102338.94
2024-03-06T12:45:58.680Z,102338.94
2024-03-06T12:48:26.936Z,102343.19
2024-03-06T12:50:55.274Z,102336.03
2024-03-06T12:53:22.962Z,102335.97
2024-03-06T12:55:49.908Z,102339.47
2024-03-06T12:58:16.463Z,102341.19
2024-03-06T13:00:43.118Z,102338.50
2024-03-06T13:03:09.715Z,102335.88
2024-03-06T13:05:36.291Z,102340.28
2024-03-06T13:08:03.122Z,102337.63
2024-03-06T13:10:30.202Z,102336.75
2024-03-06T13:12:56.679Z,102341.16
2024-03-06T13:15:23.533Z,102336.75
2024-03-06T13:17:50.224Z,102341.16
2024-03-06T13:20:20.280Z,102334.97
2024-03-06T13:22:46.780Z,102340.22
2024-03-06T13:25:13.267Z,102342.88
2024-03-06T13:27:39.726Z,102345.56
2024-03-06T13:30:09.041Z,102343.78
2024-03-06T13:32:35.710Z,102344.66
2024-03-06T13:35:02.311Z,102348.19
2024-03-06T13:37:31.218Z,102342.91
2024-03-06T13:40:01.807Z,102354.38
2024-03-06T13:42:29.025Z,102363.19
2024-03-06T13:44:56.851Z,102352.59
2024-03-06T13:47:23.395Z,102353.44
2024-03-06T13:49:50.285Z,102356.88
2024-03-06T13:52:21.126Z,102365.63
2024-03-06T13:54:49.067Z,102362.97
2024-03-06T13:57:15.575Z,102355.91
2024-03-06T13:59:42.497Z,102361.16
2024-03-06T14:02:09.348Z,102365.56
2024-03-06T14:04:36.417Z,102355.88
2024-03-06T14:07:03.090Z,102366.47
2024-03-06T14:09:29.598Z,102358.53
2024-03-06T14:11:57.402Z,102370.84
2024-03-06T14:14:24.121Z,102365.53
2024-03-06T14:16:50.896Z,102367.28
2024-03-06T14:19:17.346Z,102374.34
2024-03-06T14:21:43.783Z,102376.97
2024-03-06T14:24:10.330Z,102369.84
2024-03-06T14:26:37.004Z,102376.00
2024-03-06T14:29:04.266Z,102387.44
2024-03-06T14:31:30.949Z,102386.56
2024-03-06T14:33:57.497Z,102380.41
2024-03-06T14:36:28.197Z,102387.41
2024-03-06T14:38:54.648Z,102393.59
2024-03-06T14:41:21.514Z,102394.50
2024-03-06T14:43:48.185Z,102387.44
2024-03-06T14:46:14.611Z,102392.78
2024-03-06T14:48:41.746Z,102388.38
2024-03-06T14:51:11.325Z,102389.22
2024-03-06T14:53:38.344Z,102393.66
2024-03-06T14:56:05.206Z,102391.84
2024-03-06T14:58:31.659Z,102391.84
2024-03-06T15:00:58.191Z,102396.31
2024-03-06T15:03:24.659Z,102398.06
2024-03-06T15:05:51.326Z,102397.13
2024-03-06T15:08:17.995Z,102402.47
2024-03-06T15:10:44.589Z,102398.09
2024-03-06T15:13:17.083Z,102403.41
2024-03-06T15:15:43.628Z,102398.06
2024-03-06T15:18:11.187Z,102400.66
2024-03-06T15:20:38.187Z,102396.16
2024-03-06T15:23:05.691Z,102396.16
2024-03-06T15:25:32.494Z,102402.34
2024-03-06T15:27:59.648Z,102406.78
2024-03-06T15:30:29.278Z,102405.91
2024-03-06T15:32:55.846Z,102405.06
2024-03-06T15:35:22.536Z,102410.34
2024-03-06T15:37:49.552Z,102406.88
2024-03-06T15:40:16.121Z,102405.16
2024-03-06T15:42:44.042Z,102399.81
2024-03-06T15:45:12.377Z,102400.69
2024-03-06T15:47:39.417Z,102405.91
2024-03-06T15:50:10.625Z,102407.66
2024-03-06T15:52:39.360Z,102413.78
2024-03-06T15:55:12.632Z,102409.25
2024-03-06T15:57:39.415Z,102411.72
2024-03-06T16:00:08.050Z,102409.88
2024-03-06T16:02:34.571Z,102417.69
2024-03-06T16:05:01.123Z,102408.78
2024-03-06T16:07:29.457Z,102406.03
2024-03-06T16:09:55.968Z,102409.44
2024-03-06T16:12:23.468Z,102411.13
2024-03-06T16:14:50.264Z,102413.72
2024-03-06T16:17:16.855Z,102411.84
2024-03-06T16:19:46.966Z,102417.06
2024-03-06T16:22:13.956Z,102415.25
2024-03-06T16:24:40.690Z,102418.66
2024-03-06T16:27:07.328Z,102422.94
2024-03-06T16:29:34.255Z,102418.47
2024-03-06T16:32:03.410Z,102424.53
2024-03-06T16:34:29.945Z,102429.69
2024-03-06T16:36:56.487Z,102425.13
2024-03-06T16:39:24.564Z,102425.88
2024-03-06T16:41:51.237Z,102424.03
2024-03-06T16:44:19.572Z,102442.38
2024-03-06T16:46:46.238Z,102438.81
2024-03-06T16:49:13.757Z,102439.56
2024-03-06T16:51:40.233Z,102443.81
2024-03-06T16:54:06.699Z,102448.97
2024-03-06T16:56:33.240Z,102450.66
2024-03-06T16:58:59.851Z,102451.41
2024-03-06T17:01:26.876Z,102461.88
2024-03-06T17:03:53.376Z,102462.63
2024-03-06T17:06:19.856Z,102461.69
2024-03-06T17:08:46.426Z,102467.69
2024-03-06T17:11:13.301Z,102458.75
2024-03-06T17:13:40.573Z,102469.13
2024-03-06T17:16:08.653Z,102469.84
2024-03-06T17:18:36.531Z,102467.94
2024-03-06T17:21:05.325Z,102473.94
2024-03-06T17:23:33.226Z,102467.63
2024-03-06T17:25:59.922Z,102474.44
2024-03-06T17:28:26.580Z,102472.53
2024-03-06T17:30:54.629Z,102475.91
2024-03-06T17:33:21.883Z,102488.84
2024-03-06T17:35:48.634Z,102483.41
2024-03-06T17:38:20.025Z,102488.47
2024-03-06T17:40:46.716Z,102491.88
2024-03-06T17:43:14.012Z,102492.59
2024-03-06T17:45:40.985Z,102500.38
2024-03-06T17:48:09.402Z,102495.84
2024-03-06T17:50:39.574Z,102504.53
2024-03-06T17:53:06.258Z,102513.13
2024-03-06T17:55:32.967Z,102509.50
2024-03-06T17:58:02.768Z,102513.72
2024-03-06T18:00:31.333Z,102515.38
2024-03-06T18:02:58.519Z,102515.19
2024-03-06T18:05:25.018Z,102524.69
2024-03-06T18:07:51.528Z,102526.28
2024-03-06T18:10:18.172Z,102514.63
2024-03-06T18:12:45.753Z,102524.25
2024-03-06T18:15:12.321Z,102536.44
2024-03-06T18:17:39.539Z,102537.22
2024-03-06T18:20:08.519Z,102541.53
2024-03-06T18:22:35.231Z,102542.31
2024-03-06T18:25:04.691Z,102549.22
2024-03-06T18:27:35.049Z,102547.31
2024-03-06T18:30:04.531Z,102543.69
2024-03-06T18:32:32.048Z,102548.75
2024-03-06T18:34:59.129Z,102548.63
2024-03-06T18:37:25.806Z,102552.00
2024-03-06T18:39:55.343Z,102552.78
2024-03-06T18:42:22.581Z,102550.06
2024-03-06T18:44:50.106Z,102556.03
2024-03-06T18:47:17.026Z,102555.06
2024-03-06T18:49:43.576Z,102559.34
2024-03-06T18:52:10.099Z,102572.38
2024-03-06T18:54:40.573Z,102566.94
2024-03-06T18:57:07.657Z,102568.63
2024-03-06T18:59:34.362Z,102572.03
2024-03-06T19:02:01.144Z,102572.00
2024-03-06T19:04:27.572Z,102579.78
2024-03-06T19:06:54.442Z,102575.31
2024-03-06T19:09:23.530Z,102579.59
2024-03-06T19:11:52.935Z,102579.41
2024-03-06T19:14:19.562Z,102574.84
2024-03-06T19:16:48.202Z,102586.13
2024-03-06T19:19:15.159Z,102583.34
2024-03-06T19:21:41.695Z,102582.41
2024-03-06T19:24:08.223Z,102580.56
2024-03-06T19:26:34.678Z,102577.84
2024-03-06T19:29:01.140Z,102577.75
2024-03-06T19:31:27.880Z,102579.38
2024-03-06T19:33:54.557Z,102586.19
2024-03-06T19:36:21.157Z,102582.59
2024-03-06T19:38:47.725Z,102588.59
2024-03-06T19:41:14.469Z,102590.22
2024-03-06T19:43:41.108Z,102587.44
2024-03-06T19:46:07.853Z,102592.59
2024-03-06T19:48:36.826Z,102586.34
2024-03-06T19:51:05.629Z,102587.03
2024-03-06T19:53:32.521Z,102593.97
2024-03-06T19:56:00.059Z,102594.69
2024-03-06T19:58:27.790Z,102595.44
2024-03-06T20:00:54.361Z,102599.69
2024-03-06T20:03:23.525Z,102606.53
2024-03-06T20:05:50.140Z,102608.22
2024-03-06T20:08:16.696Z,102605.44
2024-03-06T20:10:43.189Z,102605.28
2024-03-06T20:13:10.373Z,102605.13
2024-03-06T20:15:37.537Z,102604.97
2024-03-06T20:18:05.179Z,102610.09
2024-03-06T20:20:35.071Z,102608.16
2024-03-06T20:23:07.842Z,102608.94
2024-03-06T20:25:35.510Z,102594.81
2024-03-06T20:28:01.967Z,102599.16
2024-03-06T20:30:28.410Z,102606.06
2024-03-06T20:32:55.043Z,102597.25
2024-03-06T20:35:24.552Z,102601.53
2024-03-06T20:37:51.164Z,102598.78
2024-03-06T20:40:17.882Z,102599.53
2024-03-06T20:42:45.606Z,102607.31
2024-03-06T20:45:13.892Z,102599.34
2024-03-06T20:47:43.798Z,102599.22
2024-03-06T20:50:11.667Z,102602.59
2024-03-06T20:52:38.896Z,102597.25
2024-03-06T20:55:05.881Z,102603.38
2024-03-06T20:57:32.825Z,102596.22
2024-03-06T20:59:59.838Z,102594.28
2024-03-06T21:02:26.972Z,102599.53
2024-03-06T21:04:57.374Z,102592.44
2024-03-06T21:07:23.888Z,102595.91
2024-03-06T21:09:50.473Z,102597.53
2024-03-06T21:12:17.152Z,102600.94
2024-03-06T21:14:44.757Z,102603.47
2024-03-06T21:17:11.473Z,102604.19
2024-03-06T21:19:38.165Z,102601.50
2024-03-06T21:22:05.990Z,102609.22
2024-03-06T21:24:35.810Z,102612.56
2024-03-06T21:27:03.337Z,102608.97
2024-03-06T21:29:30.809Z,102606.25
2024-03-06T21:31:57.307Z,102606.09
2024-03-06T21:34:23.887Z,102614.53
2024-03-06T21:36:50.344Z,102617.94
2024-03-06T21:39:16.822Z,102610.78
2024-03-06T21:41:44.168Z,102613.44
2024-03-06T21:44:10.796Z,102615.19
2024-03-06T21:46:37.644Z,102609.81
2024-03-06T21:49:04.482Z,102617.53
2024-03-06T21:51:31.323Z,102617.28
2024-03-06T21:53:57.787Z,102622.50
2024-03-06T21:56:24.353Z,102621.66
2024-03-06T21:58:51.029Z,102619.81
2024-03-06T22:01:17.618Z,102622.34
2024-03-06T22:03:47.178Z,102624.03
2024-03-06T22:06:13.683Z,102625.59
2024-03-06T22:08:43.723Z,102629.94
2024-03-06T22:11:12.552Z,102623.59
2024-03-06T22:13:39.541Z,102632.16
2024-03-06T22:16:06.117Z,102627.66
2024-03-06T22:18:35.293Z,102627.53
2024-03-06T22:21:01.773Z,102630.06
2024-03-06T22:23:29.980Z,102626.47
2024-03-06T22:25:59.971Z,102630.69
2024-03-06T22:28:26.432Z,102634.28
2024-03-06T22:30:52.805Z,102635.94
2024-03-06T22:33:21.543Z,102640.28
2024-03-06T22:35:48.242Z,102635.88
2024-03-06T22:38:14.837Z,102641.91
2024-03-06T22:40:41.276Z,102644.47
2024-03-06T22:43:07.896Z,102644.34
2024-03-06T22:45:34.343Z,102641.59
2024-03-06T22:48:01.101Z,102641.38
2024-03-06T22:50:27.712Z,102649.13
2024-03-06T22:52:54.262Z,102647.25
2024-03-06T22:55:20.906Z,102639.28
2024-03-06T22:57:47.396Z,102644.38
2024-03-06T23:00:36.681Z,102642.50
2024-03-06T23:03:03.359Z,102638.84
2024-03-06T23:05:30.106Z,102645.72
2024-03-06T23:07:56.519Z,102646.31
2024-03-06T23:10:25.206Z,102649.59
2024-03-06T23:12:54.007Z,102645.88
2024-03-06T23:15:20.846Z,102649.97
2024-03-06T23:17:48.764Z,102650.72
2024-03-06T23:20:17.881Z,102643.63
2024-03-06T23:22:46.270Z,102641.00
2024-03-06T23:25:13.941Z,102652.31
2024-03-06T23:27:41.625Z,102643.47
2024-03-06T23:30:13.052Z,102646.03
2024-03-06T23:32:40.995Z,102656.50
2024-03-06T23:35:10.215Z,102651.09
2024-03-06T23:37:36.816Z,102649.31
2024-03-06T23:40:05.925Z,102654.38
2024-03-06T23:42:32.988Z,102652.50
2024-03-06T23:44:59.747Z,102650.66
2024-03-06T23:47:27.941Z,102644.44
2024-03-06T23:49:54.549Z,102643.44
2024-03-06T23:52:21.956Z,102649.50
2024-03-06T23:54:48.503Z,102652.03
2024-03-06T23:57:14.924Z,102646.66
2024-03-06T23:59:41.682Z,102649.28
